Time;durP1;ratioP1;P1;durP2;ratioP2;P2;SDS_P1;SDS_P2;PMS_P1;PMS_P2;Temp;Humidity;BMP_temperature;BMP_pressure;BME280_temperature;BME280_humidity;BME280_pressure;Samples;Min_cycle;Max_cycle;Signal;HPM_P1;HPM_P2
2022/12/21 00:00:31;;;;;;;68.15;26.05;;;;;;;8.67;100.00;101083.03;5203969;28;20017;-74
2022/12/21 00:03:01;;;;;;;62.90;26.85;;;;;;;8.67;100.00;101088.38;5204958;28;20052;-74
2022/12/21 00:05:32;;;;;;;59.28;25.05;;;;;;;8.66;100.00;101088.53;5203369;28;20021;-74
2022/12/21 00:08:03;;;;;;;71.63;26.67;;;;;;;8.65;100.00;101089.53;5204867;28;20076;-73
2022/12/21 00:10:34;;;;;;;64.55;26.48;;;;;;;8.62;100.00;101095.16;5203430;28;20509;-74
2022/12/21 00:13:04;;;;;;;68.10;25.75;;;;;;;8.59;100.00;101090.97;5203500;28;20037;-74
2022/12/21 00:15:35;;;;;;;66.03;25.48;;;;;;;8.57;100.00;101087.59;5203766;28;20466;-74
2022/12/21 00:18:05;;;;;;;80.40;27.73;;;;;;;8.55;100.00;101086.91;5204034;28;20390;-73
2022/12/21 00:20:36;;;;;;;68.35;26.20;;;;;;;8.50;100.00;101089.19;5210025;28;20029;-74
2022/12/21 00:23:06;;;;;;;70.53;27.77;;;;;;;8.50;100.00;101086.50;5203520;28;20025;-73
2022/12/21 00:25:37;;;;;;;76.13;27.30;;;;;;;8.48;100.00;101085.78;5204224;28;20026;-74
2022/12/21 00:28:07;;;;;;;65.55;27.48;;;;;;;8.49;100.00;101083.00;5204459;28;20049;-73
2022/12/21 00:30:38;;;;;;;62.97;26.90;;;;;;;8.51;100.00;101089.03;5203410;28;20025;-73
2022/12/21 00:33:08;;;;;;;73.90;28.48;;;;;;;8.51;100.00;101094.38;5203202;28;20056;-73
2022/12/21 00:35:39;;;;;;;79.68;28.70;;;;;;;8.53;100.00;101086.19;5203858;28;20029;-73
2022/12/21 00:38:09;;;;;;;77.50;28.17;;;;;;;8.52;100.00;101081.84;5203002;28;20029;-74
2022/12/21 00:40:40;;;;;;;78.97;28.60;;;;;;;8.50;100.00;101083.81;5205339;28;20053;-73
2022/12/21 00:43:10;;;;;;;75.43;29.30;;;;;;;8.48;100.00;101086.66;5204120;28;20022;-73
2022/12/21 00:45:42;;;;;;;69.72;25.70;;;;;;;8.47;100.00;101078.75;5203637;28;20679;-73
2022/12/21 00:48:12;;;;;;;69.38;26.00;;;;;;;8.48;100.00;101083.13;5203975;28;20041;-73
2022/12/21 00:50:43;;;;;;;63.08;25.33;;;;;;;8.47;100.00;101092.97;5202995;28;20025;-73
2022/12/21 00:53:16;;;;;;;70.97;26.10;;;;;;;8.47;100.00;101087.63;5203886;28;20025;-74
2022/12/21 00:55:57;;;;;;;80.00;28.05;;;;;;;8.49;100.00;101085.66;5205438;28;20029;-73
2022/12/21 00:58:29;;;;;;;65.15;25.58;;;;;;;8.51;100.00;101083.66;5202537;28;20030;-73
2022/12/21 01:01:05;;;;;;;67.70;27.60;;;;;;;8.51;100.00;101080.16;5203191;28;20078;-74
2022/12/21 01:03:35;;;;;;;69.72;24.58;;;;;;;8.52;100.00;101079.16;5203627;28;20025;-74
2022/12/21 01:06:09;;;;;;;75.35;26.92;;;;;;;8.53;100.00;101089.72;5203581;28;20033;-73
2022/12/21 01:08:39;;;;;;;83.63;27.33;;;;;;;8.53;100.00;101089.72;5203388;28;20029;-74
2022/12/21 01:11:12;;;;;;;73.50;26.85;;;;;;;8.50;100.00;101083.81;5202578;28;20033;-73
2022/12/21 01:13:44;;;;;;;66.65;26.60;;;;;;;8.49;100.00;101082.16;5203364;28;20395;-74
2022/12/21 01:16:17;;;;;;;66.80;26.83;;;;;;;8.49;100.00;101076.81;5203184;28;20633;-73
2022/12/21 01:18:48;;;;;;;62.42;24.80;;;;;;;8.47;100.00;101073.41;5204471;28;20491;-74
2022/12/21 01:21:30;;;;;;;67.03;24.67;;;;;;;8.46;100.00;101079.75;5205326;28;20030;-73
2022/12/21 01:24:00;;;;;;;57.42;23.38;;;;;;;8.44;100.00;101095.13;5202949;28;20026;-74
2022/12/21 01:26:31;;;;;;;67.03;23.63;;;;;;;8.43;100.00;101085.38;5202962;28;20079;-73
2022/12/21 01:29:01;;;;;;;68.95;24.02;;;;;;;8.41;100.00;101090.88;5203019;28;20023;-73
2022/12/21 01:31:32;;;;;;;67.50;24.08;;;;;;;8.39;100.00;101087.53;5202294;28;20592;-74
2022/12/21 01:34:03;;;;;;;76.22;25.95;;;;;;;8.38;100.00;101091.16;5201381;28;20029;-72
2022/12/21 01:36:33;;;;;;;91.03;26.55;;;;;;;8.37;100.00;101089.47;5202818;28;20048;-74
2022/12/21 01:39:05;;;;;;;61.33;24.52;;;;;;;8.36;100.00;101089.59;5202835;28;20028;-74
2022/12/21 01:41:35;;;;;;;69.10;25.13;;;;;;;8.35;100.00;101088.78;5202255;28;20075;-74
2022/12/21 01:44:44;;;;;;;69.60;25.65;;;;;;;8.36;100.00;101100.31;5202513;28;20029;-74
2022/12/21 01:47:20;;;;;;;54.85;22.98;;;;;;;8.34;100.00;101095.13;5201798;28;20112;-74
2022/12/21 01:49:59;;;;;;;;;;;;;;;8.35;100.00;101101.28;5202908;28;20084;-74
2022/12/21 01:52:31;;;;;;;64.25;25.63;;;;;;;8.37;100.00;101115.38;5201361;28;19967;-74
2022/12/21 01:55:05;;;;;;;86.35;28.35;;;;;;;8.36;100.00;101117.22;5202383;28;20029;-73
2022/12/21 01:57:35;;;;;;;73.72;25.20;;;;;;;8.37;100.00;101112.72;5201676;28;20029;-74
2022/12/21 02:00:08;;;;;;;58.17;23.48;;;;;;;8.41;100.00;101114.09;5201905;28;20112;-74
2022/12/21 02:02:44;;;;;;;71.03;24.98;;;;;;;8.41;100.00;101112.28;5203735;28;20114;-74
2022/12/21 02:05:28;;;;;;;66.78;24.95;;;;;;;8.39;100.00;101114.25;5203148;28;20032;-74
2022/12/21 02:08:03;;;;;;;68.13;25.08;;;;;;;8.37;100.00;101116.22;5203579;28;20021;-73
2022/12/21 02:10:34;;;;;;;85.78;26.92;;;;;;;8.36;100.00;101111.88;5202744;28;20074;-74
2022/12/21 02:13:09;;;;;;;81.65;27.58;;;;;;;8.35;100.00;101101.28;5203456;28;20029;-74
2022/12/21 02:15:58;;;;;;;73.85;25.73;;;;;;;8.35;100.00;101102.13;5202697;28;20449;-74
2022/12/21 02:19:03;;;;;;;77.50;25.67;;;;;;;8.31;100.00;101109.59;5193375;28;20029;-73
2022/12/21 02:21:49;;;;;;;89.20;27.30;;;;;;;8.32;100.00;101113.09;5203513;28;20037;-74
2022/12/21 02:24:22;;;;;;;;;;;;;;;8.32;100.00;101116.63;5203713;28;20434;-74
2022/12/21 02:27:02;;;;;;;;;;;;;;;8.32;100.00;101115.78;5203743;28;19954;-74
2022/12/21 02:29:56;;;;;;;76.93;26.15;;;;;;;8.31;100.00;101116.78;5202714;28;19909;-74
2022/12/21 02:32:33;;;;;;;69.65;23.77;;;;;;;8.31;100.00;101130.13;5201472;28;20067;-74
2022/12/21 02:35:21;;;;;;;61.55;23.25;;;;;;;8.31;100.00;101128.31;5203115;28;20060;-74
2022/12/21 02:37:54;;;;;;;70.40;22.92;;;;;;;8.28;100.00;101125.06;5202030;28;20510;-74
2022/12/21 02:40:53;;;;;;;65.82;22.35;;;;;;;8.26;100.00;101125.22;5202654;28;20076;-73
2022/12/21 02:44:12;;;;;;;57.95;20.60;;;;;;;8.26;100.00;101116.38;5192325;28;20037;-74
2022/12/21 02:46:43;;;;;;;63.13;18.08;;;;;;;8.22;100.00;101113.13;5202913;28;20022;-74
2022/12/21 02:49:28;;;;;;;40.28;13.25;;;;;;;8.10;100.00;101116.13;5203038;28;20561;-74
2022/12/21 02:52:06;;;;;;;30.15;12.13;;;;;;;8.00;100.00;101114.31;5202374;28;20402;-74
2022/12/21 02:54:40;;;;;;;33.08;13.15;;;;;;;7.90;100.00;101105.47;5203385;28;20104;-74
2022/12/21 02:57:11;;;;;;;38.72;13.05;;;;;;;7.85;100.00;101104.22;5205366;28;20095;-74
2022/12/21 02:59:49;;;;;;;40.78;12.02;;;;;;;7.79;100.00;101101.13;5205447;28;20018;-74
2022/12/21 03:02:38;;;;;;;30.52;12.13;;;;;;;7.79;100.00;101087.78;5206364;28;20028;-74
2022/12/21 03:05:26;;;;;;;28.10;9.40;;;;;;;7.82;100.00;101093.81;5206566;28;20040;-74
2022/12/21 03:08:19;;;;;;;34.65;10.95;;;;;;;7.85;100.00;101102.38;5206760;28;20100;-74
2022/12/21 03:10:53;;;;;;;32.15;11.73;;;;;;;7.75;100.00;101096.22;5205936;28;20036;-74
2022/12/21 03:13:36;;;;;;;27.80;10.10;;;;;;;7.76;100.00;101087.19;5206564;28;20033;-73
2022/12/21 03:16:25;;;;;;;30.27;9.52;;;;;;;7.74;100.00;101082.00;5204807;28;20036;-74
2022/12/21 03:19:17;;;;;;;25.85;9.15;;;;;;;7.74;100.00;101079.34;5208803;28;20013;-74
2022/12/21 03:21:55;;;;;;;26.45;8.35;;;;;;;7.74;100.00;101067.81;5192872;28;20065;-74
2022/12/21 03:24:44;;;;;;;34.25;10.23;;;;;;;7.71;100.00;101078.78;5205964;28;20018;-74
2022/12/21 03:27:20;;;;;;;27.15;9.02;;;;;;;7.67;100.00;101074.69;5206436;28;20033;-74
2022/12/21 03:29:56;;;;;;;24.90;9.77;;;;;;;7.65;100.00;101082.03;5205888;28;20044;-74
2022/12/21 03:32:52;;;;;;;27.80;10.32;;;;;;;7.63;100.00;101086.63;5204854;28;20071;-73
2022/12/21 03:35:31;;;;;;;31.40;9.70;;;;;;;7.64;100.00;101081.19;5203521;28;20392;-74
2022/12/21 03:38:08;;;;;;;26.90;9.93;;;;;;;7.65;100.00;101074.00;5205429;28;20438;-74
2022/12/21 03:40:42;;;;;;;29.60;10.35;;;;;;;7.67;100.00;101077.38;5205348;28;20410;-74
2022/12/21 03:43:20;;;;;;;24.33;9.80;;;;;;;7.69;100.00;101075.41;5205893;28;20021;-74
2022/12/21 03:45:55;;;;;;;31.58;11.98;;;;;;;7.68;100.00;101079.91;5213769;23;20418;-77
2022/12/21 03:48:31;;;;;;;31.15;11.60;;;;;;;7.68;100.00;101077.25;5205205;28;20030;-77
2022/12/21 03:51:09;;;;;;;28.45;9.57;;;;;;;7.67;100.00;101082.72;5193248;28;20068;-77
2022/12/21 03:53:46;;;;;;;23.98;9.38;;;;;;;7.62;100.00;101079.63;5206473;28;20031;-77
2022/12/21 03:56:24;;;;;;;24.83;8.15;;;;;;;7.49;100.00;101082.59;5206753;28;20018;-77
2022/12/21 03:58:54;;;;;;;41.60;9.88;;;;;;;7.42;100.00;101078.78;5206632;28;20024;-77
2022/12/21 04:01:34;;;;;;;30.23;9.10;;;;;;;7.37;100.00;101075.69;5206217;28;20385;-77
2022/12/21 04:04:15;;;;;;;26.33;9.05;;;;;;;7.36;100.00;101080.19;5194278;28;20086;-77
2022/12/21 04:06:48;;;;;;;26.10;9.05;;;;;;;7.38;100.00;101078.25;5206394;28;20018;-77
2022/12/21 04:09:20;;;;;;;35.15;10.32;;;;;;;7.38;100.00;101067.56;5206509;28;20053;-77
2022/12/21 04:14:40;;;;;;;38.00;10.48;;;;;;;7.43;100.00;101070.66;5206295;28;20064;-77
2022/12/21 04:17:10;;;;;;;36.50;10.88;;;;;;;7.47;100.00;101068.53;5206372;28;20053;-77
2022/12/21 04:19:59;;;;;;;30.65;10.13;;;;;;;7.48;100.00;101064.84;5212644;28;20055;-77
2022/12/21 04:28:32;;;;;;;27.85;9.48;;;;;;;7.39;100.00;101052.38;5114140;29;20068;-77
2022/12/21 04:31:03;;;;;;;31.85;9.90;;;;;;;7.39;100.00;101050.56;5187668;28;20184;-77
2022/12/21 04:33:33;;;;;;;33.13;12.40;;;;;;;7.41;100.00;101043.25;5206089;28;20030;-79
2022/12/21 04:38:53;;;;;;;47.35;13.52;;;;;;;7.45;100.00;101051.81;5205994;28;20025;-79
2022/12/21 04:41:24;;;;;;;41.65;13.27;;;;;;;7.47;100.00;101049.84;5205279;28;20083;-79
2022/12/21 04:43:54;;;;;;;46.55;13.95;;;;;;;7.49;100.00;101051.41;5205681;28;20498;-79
2022/12/21 04:46:25;;;;;;;49.05;14.25;;;;;;;7.51;100.00;101052.09;5204538;28;20033;-79
2022/12/21 04:48:55;;;;;;;48.63;16.23;;;;;;;7.51;100.00;101051.25;5205663;28;20148;-79
2022/12/21 04:51:26;;;;;;;53.28;16.48;;;;;;;7.51;100.00;101052.09;5205350;28;20040;-79
2022/12/21 04:53:56;;;;;;;56.45;16.55;;;;;;;7.50;100.00;101050.41;5205292;28;20026;-79
2022/12/21 04:56:27;;;;;;;59.47;19.20;;;;;;;7.51;100.00;101044.06;5205692;28;20025;-79
2022/12/21 04:58:58;;;;;;;63.53;19.23;;;;;;;7.55;100.00;101051.81;5205438;28;20605;-79
2022/12/21 05:01:28;;;;;;;58.55;19.17;;;;;;;7.53;100.00;101052.81;5205076;28;20472;-79
2022/12/21 05:03:58;;;;;;;64.65;20.65;;;;;;;7.53;100.00;101051.97;5204261;28;20080;-79
2022/12/21 05:06:29;;;;;;;75.55;20.45;;;;;;;7.51;100.00;101051.25;5205177;28;20029;-79
2022/12/21 05:08:59;;;;;;;67.05;19.52;;;;;;;7.49;100.00;101047.88;5205430;28;20412;-79
2022/12/21 05:11:32;;;;;;;62.63;17.92;;;;;;;7.50;100.00;101047.72;5205075;28;20098;-79
2022/12/21 05:14:02;;;;;;;62.13;17.02;;;;;;;7.50;100.00;101044.22;5205215;28;20053;-79
2022/12/21 05:16:33;;;;;;;58.55;18.67;;;;;;;7.46;100.00;101054.34;5205048;28;20449;-79
2022/12/21 05:19:04;;;;;;;66.22;19.15;;;;;;;7.49;100.00;101042.53;5209188;28;20039;-79
2022/12/21 05:21:34;;;;;;;67.35;19.50;;;;;;;7.48;100.00;101040.84;5205499;28;20211;-79
2022/12/21 05:24:05;;;;;;;70.68;21.55;;;;;;;7.50;100.00;101045.06;5204197;28;20492;-79
2022/12/21 05:26:36;;;;;;;67.32;18.17;;;;;;;7.48;100.00;101033.69;5205207;28;20029;-78
2022/12/21 05:29:06;;;;;;;70.38;19.20;;;;;;;7.48;100.00;101044.38;5205239;28;20539;-78
2022/12/21 05:31:37;;;;;;;64.07;17.38;;;;;;;7.50;100.00;101044.22;5204702;28;20025;-79
2022/12/21 05:34:07;;;;;;;70.68;19.13;;;;;;;7.52;100.00;101047.59;5204997;28;20022;-79
2022/12/21 05:36:38;;;;;;;61.10;17.10;;;;;;;7.50;100.00;101045.06;5206145;28;20049;-79
2022/12/21 05:39:08;;;;;;;57.17;17.10;;;;;;;7.49;100.00;101043.38;5205442;28;20112;-79
2022/12/21 05:41:39;;;;;;;63.67;18.38;;;;;;;7.51;100.00;101045.91;5203747;28;20045;-79
2022/12/21 05:44:09;;;;;;;60.65;17.50;;;;;;;7.50;100.00;101047.72;5204950;28;20024;-79
2022/12/21 05:46:40;;;;;;;56.40;17.13;;;;;;;7.49;100.00;101053.22;5204765;28;20117;-79
2022/12/21 05:49:11;;;;;;;53.72;17.23;;;;;;;7.47;100.00;101050.69;5204682;28;20432;-78
2022/12/21 05:51:41;;;;;;;59.63;17.23;;;;;;;7.49;100.00;101053.22;5204026;28;20501;-79
2022/12/21 05:54:12;;;;;;;59.10;16.60;;;;;;;7.49;100.00;101039.88;5204510;28;20087;-79
2022/12/21 05:56:42;;;;;;;51.33;15.93;;;;;;;7.48;100.00;101036.38;5204313;28;20061;-79
2022/12/21 05:59:13;;;;;;;53.72;17.05;;;;;;;7.50;100.00;101036.22;5204660;28;20053;-79
2022/12/21 06:01:44;;;;;;;52.20;16.50;;;;;;;7.47;100.00;101042.66;5203929;28;20460;-79
2022/12/21 06:04:14;;;;;;;59.10;16.60;;;;;;;7.44;100.00;101045.63;5204460;28;20394;-79
2022/12/21 06:06:46;;;;;;;57.45;15.88;;;;;;;7.45;100.00;101051.81;5204235;28;20441;-79
2022/12/21 06:09:17;;;;;;;60.25;16.55;;;;;;;7.44;100.00;101052.81;5203198;28;20025;-79
2022/12/21 06:11:47;;;;;;;61.88;16.35;;;;;;;7.42;100.00;101058.25;5204001;28;20045;-77
2022/12/21 06:14:17;;;;;;;60.13;15.27;;;;;;;7.42;100.00;101052.94;5210018;28;20321;-81
2022/12/21 06:16:48;;;;;;;58.53;16.80;;;;;;;7.40;100.00;101044.22;5208174;28;20404;-77
2022/12/21 06:19:18;;;;;;;58.17;15.15;;;;;;;7.42;100.00;101049.41;5212477;28;20100;-77
2022/12/21 06:21:49;;;;;;;51.42;15.40;;;;;;;7.43;100.00;101049.31;5192805;28;20598;-79
2022/12/21 06:24:19;;;;;;;53.60;15.23;;;;;;;7.43;100.00;101051.09;5207508;28;20468;-78
2022/12/21 06:26:50;;;;;;;53.65;16.98;;;;;;;7.45;100.00;101057.16;5209266;28;20633;-82
2022/12/21 06:29:20;;;;;;;54.80;16.25;;;;;;;7.44;100.00;101050.13;5210211;28;20021;-83
2022/12/21 06:31:51;;;;;;;62.53;17.38;;;;;;;7.43;100.00;101056.44;5207639;28;20021;-79
2022/12/21 06:34:21;;;;;;;49.17;14.50;;;;;;;7.42;100.00;101052.09;5211156;28;20052;-79
2022/12/21 06:36:52;;;;;;;57.35;15.75;;;;;;;7.41;100.00;101047.75;5213884;28;20025;-80
2022/12/21 06:39:22;;;;;;;55.20;14.52;;;;;;;7.40;100.00;101052.22;5213307;28;20079;-80
2022/12/21 06:41:53;;;;;;;43.65;13.88;;;;;;;7.42;100.00;101052.94;5212233;28;20025;-80
2022/12/21 06:44:23;;;;;;;49.63;14.38;;;;;;;7.40;100.00;101054.91;5212887;28;20030;-80
2022/12/21 06:46:54;;;;;;;51.53;14.65;;;;;;;7.41;100.00;101061.09;5214718;28;20481;-80
2022/12/21 06:49:24;;;;;;;58.42;16.20;;;;;;;7.43;100.00;101064.44;5214264;28;20492;-80
2022/12/21 06:51:55;;;;;;;51.70;15.50;;;;;;;7.36;100.00;101064.16;5213660;28;20029;-79
2022/12/21 06:54:25;;;;;;;51.78;15.18;;;;;;;7.33;100.00;101064.47;5214935;28;20116;-80
2022/12/21 06:56:56;;;;;;;53.08;14.93;;;;;;;7.31;100.00;101070.91;5212511;28;20017;-80
2022/12/21 06:59:26;;;;;;;64.60;15.68;;;;;;;7.29;100.00;101072.88;5213495;28;20454;-80
2022/12/21 07:01:57;;;;;;;55.83;14.35;;;;;;;7.25;100.00;101065.16;5212545;28;20406;-80
2022/12/21 07:04:27;;;;;;;50.83;15.52;;;;;;;7.29;100.00;101078.22;5213574;28;20116;-80
2022/12/21 07:06:57;;;;;;;51.53;16.17;;;;;;;7.30;100.00;101080.75;5213142;28;20462;-80
2022/12/21 07:09:28;;;;;;;57.67;16.60;;;;;;;7.29;100.00;101088.91;5212743;28;20101;-80
2022/12/21 07:11:58;;;;;;;55.00;17.08;;;;;;;7.27;100.00;101092.53;5214126;28;20071;-80
2022/12/21 07:14:29;;;;;;;51.97;15.35;;;;;;;7.28;100.00;101101.41;5213767;28;20045;-80
2022/12/21 07:17:00;;;;;;;56.75;17.58;;;;;;;7.29;100.00;101099.59;5213450;28;20033;-80
2022/12/21 07:19:31;;;;;;;56.90;16.05;;;;;;;7.31;100.00;101110.94;5220830;28;20016;-80
2022/12/21 07:22:01;;;;;;;61.95;17.33;;;;;;;7.34;100.00;101114.19;5213301;28;20402;-80
2022/12/21 07:24:32;;;;;;;68.07;18.58;;;;;;;7.35;100.00;101121.22;5211924;28;20029;-85
2022/12/21 07:27:02;;;;;;;60.33;17.40;;;;;;;7.36;100.00;101117.56;5211555;28;20061;-78
2022/12/21 07:29:33;;;;;;;50.53;17.33;;;;;;;7.40;100.00;101128.81;5213265;28;20025;-79
2022/12/21 07:32:03;;;;;;;59.75;17.08;;;;;;;7.41;100.00;101126.00;5213600;28;20044;-79
2022/12/21 07:34:34;;;;;;;59.70;18.13;;;;;;;7.40;100.00;101126.97;5212602;28;20030;-79
2022/12/21 07:37:04;;;;;;;55.40;16.25;;;;;;;7.40;100.00;101126.13;5212971;28;20095;-79
2022/12/21 07:39:35;;;;;;;63.30;17.52;;;;;;;7.41;100.00;101131.31;5213564;28;20026;-78
2022/12/21 07:42:05;;;;;;;51.08;17.08;;;;;;;7.41;100.00;101134.00;5211954;28;20026;-79
2022/12/21 07:44:36;;;;;;;59.78;16.80;;;;;;;7.44;100.00;101125.72;5212556;28;20059;-79
2022/12/21 07:47:06;;;;;;;88.03;29.40;;;;;;;7.45;100.00;101132.75;5211910;28;20021;-79
2022/12/21 07:49:37;;;;;;;95.10;29.98;;;;;;;7.43;100.00;101137.38;5212985;28;20049;-79
2022/12/21 07:52:07;;;;;;;63.97;21.33;;;;;;;7.42;100.00;101138.34;5212412;28;20042;-79
2022/12/21 07:54:38;;;;;;;66.82;21.77;;;;;;;7.42;100.00;101146.34;5213112;28;20148;-79
2022/12/21 07:57:08;;;;;;;50.75;17.65;;;;;;;7.40;100.00;101144.81;5212200;28;20022;-78
2022/12/21 07:59:38;;;;;;;62.40;17.40;;;;;;;7.38;100.00;101155.66;5210764;28;20029;-79
2022/12/21 08:02:09;;;;;;;50.33;17.98;;;;;;;7.39;100.00;101143.13;5209167;28;20028;-78
2022/12/21 08:04:40;;;;;;;52.40;16.80;;;;;;;7.38;100.00;101136.09;5211681;28;20021;-80
2022/12/21 08:07:10;;;;;;;56.95;15.68;;;;;;;7.38;100.00;101142.28;5212963;28;20021;-79
2022/12/21 08:09:40;;;;;;;47.85;16.95;;;;;;;7.34;100.00;101135.53;5210820;28;20062;-79
2022/12/21 08:12:11;;;;;;;54.90;17.17;;;;;;;7.29;100.00;101140.44;5211539;28;20081;-80
2022/12/21 08:14:41;;;;;;;51.70;16.95;;;;;;;7.27;100.00;101142.41;5212162;28;20091;-80
2022/12/21 08:17:12;;;;;;;64.38;18.85;;;;;;;7.25;100.00;101136.38;5211043;28;20022;-80
2022/12/21 08:19:42;;;;;;;54.78;16.65;;;;;;;7.24;100.00;101137.34;5217475;28;20022;-80
2022/12/21 08:22:13;;;;;;;55.60;17.13;;;;;;;7.29;100.00;101126.25;5210878;28;20116;-80
2022/12/21 08:24:43;;;;;;;52.40;17.38;;;;;;;7.32;100.00;101148.16;5211169;28;20528;-80
2022/12/21 08:27:14;;;;;;;65.07;20.05;;;;;;;7.40;100.00;101145.66;5211304;28;20032;-80
2022/12/21 08:29:44;;;;;;;55.97;19.38;;;;;;;7.43;100.00;101160.53;5209514;28;20021;-80
2022/12/21 08:32:15;;;;;;;58.70;19.13;;;;;;;7.46;100.00;101145.09;5210068;28;20362;-80
2022/12/21 08:34:45;;;;;;;51.58;17.67;;;;;;;7.50;100.00;101146.50;5209314;28;20406;-80
2022/12/21 08:37:16;;;;;;;66.50;19.00;;;;;;;7.65;100.00;101143.44;5211318;28;20049;-80
2022/12/21 08:39:46;;;;;;;60.60;18.60;;;;;;;8.05;100.00;101141.44;5209479;28;20044;-80
2022/12/21 08:42:16;;;;;;;54.50;17.58;;;;;;;8.37;100.00;101150.13;5210315;28;20060;-80
2022/12/21 08:44:48;;;;;;;43.28;17.30;;;;;;;8.63;100.00;101158.34;5211458;28;20060;-80
2022/12/21 08:47:18;;;;;;;39.90;16.58;;;;;;;8.86;100.00;101161.53;5210532;28;20021;-81
2022/12/21 08:49:48;;;;;;;46.42;15.00;;;;;;;8.87;100.00;101148.00;5210849;28;20017;-80
2022/12/21 08:52:19;;;;;;;41.75;14.10;;;;;;;8.71;100.00;101151.28;5204608;28;20021;-80
2022/12/21 08:54:49;;;;;;;35.10;14.35;;;;;;;8.51;100.00;101149.69;5205091;28;20044;-80
2022/12/21 08:57:20;;;;;;;44.97;15.40;;;;;;;8.31;100.00;101151.53;5205598;28;20029;-80
2022/12/21 08:59:51;;;;;;;41.13;14.82;;;;;;;8.37;100.00;101153.66;5204353;28;20041;-81
2022/12/21 09:02:21;;;;;;;50.05;16.13;;;;;;;8.39;100.00;101164.22;5205505;28;20025;-79
2022/12/21 09:04:52;;;;;;;45.95;15.02;;;;;;;8.22;100.00;101166.59;5205951;28;20570;-79
2022/12/21 09:07:22;;;;;;;42.03;16.30;;;;;;;8.23;100.00;101170.97;5205929;28;20112;-80
2022/12/21 09:09:53;;;;;;;52.35;17.45;;;;;;;8.20;100.00;101162.38;5204273;28;20082;-78
2022/12/21 09:12:23;;;;;;;44.17;15.35;;;;;;;8.14;100.00;101161.13;5206260;28;20064;-79
2022/12/21 09:14:53;;;;;;;44.65;15.55;;;;;;;8.11;100.00;101161.41;5204076;28;20029;-79
2022/12/21 09:17:24;;;;;;;53.15;17.65;;;;;;;8.10;100.00;101172.25;5194477;28;20106;-79
2022/12/21 09:19:54;;;;;;;46.58;16.20;;;;;;;8.09;100.00;101166.06;5208177;28;20018;-79
2022/12/21 09:22:25;;;;;;;50.95;17.02;;;;;;;8.07;100.00;101169.84;5205117;28;20028;-79
2022/12/21 09:24:56;;;;;;;53.03;17.50;;;;;;;8.09;100.00;101159.88;5205018;28;20537;-79
2022/12/21 09:27:26;;;;;;;57.97;20.25;;;;;;;8.07;100.00;101160.00;5204156;28;20025;-79
2022/12/21 09:29:57;;;;;;;60.83;19.58;;;;;;;8.06;100.00;101161.00;5203872;28;20025;-79
2022/12/21 09:32:27;;;;;;;55.45;19.17;;;;;;;8.14;100.00;101160.28;5203762;28;20084;-79
2022/12/21 09:34:57;;;;;;;51.60;17.55;;;;;;;8.19;100.00;101158.03;5205470;28;20029;-81
2022/12/21 09:37:28;;;;;;;63.05;18.83;;;;;;;8.18;100.00;101157.19;5203439;28;20028;-77
2022/12/21 09:39:59;;;;;;;65.50;18.98;;;;;;;8.20;100.00;101157.88;5204645;28;20104;-77
2022/12/21 09:42:35;;;;;;;55.63;18.05;;;;;;;8.22;100.00;101165.75;5204959;28;20025;-79
2022/12/21 09:45:21;;;;;;;45.10;16.73;;;;;;;8.24;100.00;101159.28;5204932;28;20409;-79
2022/12/21 09:47:56;;;;;;;49.55;17.45;;;;;;;8.29;100.00;101164.22;5204787;28;20033;-79
2022/12/21 09:50:36;;;;;;;59.85;19.40;;;;;;;8.30;100.00;101165.88;5204621;28;20025;-80
2022/12/21 09:53:17;;;;;;;56.33;19.88;;;;;;;8.31;100.00;101170.25;5205334;28;20040;-80
2022/12/21 09:55:53;;;;;;;69.78;19.80;;;;;;;8.39;100.00;101170.41;5205372;28;20559;-80
2022/12/21 09:58:41;;;;;;;56.53;18.90;;;;;;;8.40;100.00;101156.03;5204075;28;20113;-80
2022/12/21 10:01:21;;;;;;;51.03;18.15;;;;;;;8.43;100.00;101161.09;5206487;28;20026;-80
2022/12/21 10:04:20;;;;;;;55.35;18.30;;;;;;;8.39;100.00;101158.88;5207642;28;20045;-80
2022/12/21 10:07:32;;;;;;;48.08;15.77;;;;;;;8.40;100.00;101156.03;5209636;28;20120;-80
2022/12/21 10:10:30;;;;;;;55.17;15.95;;;;;;;8.36;100.00;101154.66;5161497;28;20072;-80
2022/12/21 10:13:04;;;;;;;60.15;15.45;;;;;;;8.39;100.00;101150.84;5210419;28;20025;-80
2022/12/21 10:15:39;;;;;;;49.47;14.65;;;;;;;8.51;100.00;101153.19;5209846;28;20039;-79
2022/12/21 10:18:21;;;;;;;45.45;13.25;;;;;;;8.57;100.00;101143.75;5209262;28;20033;-79
2022/12/21 10:21:17;;;;;;;36.90;12.70;;;;;;;8.69;100.00;101145.25;5216750;28;20026;-78
2022/12/21 10:23:51;;;;;;;38.38;10.77;;;;;;;8.82;100.00;101136.88;5210586;28;20056;-81
2022/12/21 10:26:25;;;;;;;37.60;11.43;;;;;;;8.74;100.00;101136.81;5207285;28;20121;-77
2022/12/21 10:29:31;;;;;;;30.52;10.07;;;;;;;8.82;100.00;101136.88;5205357;28;20021;-77
2022/12/21 10:32:02;;;;;;;31.85;10.60;;;;;;;8.93;100.00;101136.69;5187848;28;20040;-77
2022/12/21 10:34:36;;;;;;;29.67;9.55;;;;;;;8.84;100.00;101132.25;5205842;28;20395;-78
2022/12/21 10:37:19;;;;;;;37.30;9.77;;;;;;;8.74;100.00;101150.19;5204586;28;20382;-77
2022/12/21 10:39:55;;;;;;;26.80;8.45;;;;;;;8.80;100.00;101152.25;5203974;28;20032;-77
2022/12/21 10:42:37;;;;;;;34.47;9.20;;;;;;;8.87;100.00;101148.00;5203809;28;20108;-77
2022/12/21 10:45:13;;;;;;;40.25;10.38;;;;;;;8.92;100.00;101148.38;5203957;28;20510;-77
2022/12/21 10:47:44;;;;;;;26.38;8.80;;;;;;;8.88;100.00;101143.47;5202736;28;20029;-77
2022/12/21 10:50:17;;;;;;;30.65;9.93;;;;;;;8.87;100.00;101137.28;5203587;28;20033;-77
2022/12/21 10:52:50;;;;;;;22.83;10.25;;;;;;;8.71;100.00;101145.94;5203997;28;20546;-77
2022/12/21 10:55:25;;;;;;;24.58;10.43;;;;;;;8.76;100.00;101137.47;5203802;28;20501;-77
2022/12/21 10:58:05;;;;;;;21.20;9.77;;;;;;;8.84;100.00;101137.59;5203987;28;20528;-77
2022/12/21 11:00:38;;;;;;;26.27;9.65;;;;;;;8.84;100.00;101134.94;5203342;28;20037;-77
2022/12/21 11:04:04;;;;;;;18.98;9.25;;;;;;;8.84;100.00;101139.44;5203065;28;20048;-77
2022/12/21 11:06:35;;;;;;;30.00;10.13;;;;;;;8.72;100.00;101131.56;5120796;29;20436;-77
2022/12/21 11:09:28;;;;;;;20.65;8.70;;;;;;;8.69;100.00;101136.41;5120448;29;20031;-77
2022/12/21 11:12:20;;;;;;;18.25;8.85;;;;;;;8.68;100.00;101143.56;5176902;28;20044;-77
2022/12/21 11:14:52;;;;;;;19.70;7.82;;;;;;;8.54;100.00;101150.25;5203504;28;20547;-77
2022/12/21 11:17:26;;;;;;;17.45;7.20;;;;;;;8.47;100.00;101140.25;5194123;28;20064;-77
2022/12/21 11:20:14;;;;;;;25.00;7.82;;;;;;;8.49;100.00;101140.97;5211761;28;20021;-77
2022/12/21 11:22:46;;;;;;;17.33;7.30;;;;;;;8.57;100.00;101143.75;5207110;28;20025;-77
2022/12/21 11:25:21;;;;;;;16.45;6.80;;;;;;;8.67;100.00;101139.19;5207471;28;20445;-77
2022/12/21 11:27:59;;;;;;;21.00;7.35;;;;;;;8.71;100.00;101123.72;5207260;28;20108;-77
2022/12/21 11:30:35;;;;;;;21.20;7.57;;;;;;;8.72;100.00;101117.38;5206946;28;20028;-77
2022/12/21 11:33:17;;;;;;;15.35;7.88;;;;;;;8.75;100.00;101119.75;5207089;28;20537;-77
2022/12/21 11:36:06;;;;;;;19.95;8.20;;;;;;;8.76;100.00;101118.75;5207170;28;20470;-77
2022/12/21 11:38:37;;;;;;;20.60;8.70;;;;;;;8.78;100.00;101111.41;5207167;28;20560;-77
2022/12/21 11:41:19;;;;;;;25.80;8.05;;;;;;;8.74;100.00;101110.06;5206696;28;20111;-77
2022/12/21 11:43:50;;;;;;;16.63;7.80;;;;;;;8.69;100.00;101107.81;5205935;28;20021;-77
2022/12/21 11:46:52;;;;;;;23.40;8.88;;;;;;;8.72;100.00;101106.66;5207440;28;20029;-77
2022/12/21 11:49:33;;;;;;;23.42;7.57;;;;;;;8.72;100.00;101104.00;5205700;28;20049;-77
2022/12/21 11:52:31;;;;;;;20.58;8.65;;;;;;;8.79;100.00;101102.41;5206639;28;20033;-77
2022/12/21 11:55:22;;;;;;;25.83;8.80;;;;;;;8.75;100.00;101098.34;5206635;28;20378;-77
2022/12/21 11:58:11;;;;;;;22.70;8.48;;;;;;;8.72;100.00;101088.78;5206751;28;20355;-77